LPL weather

Liverpool John Lennon Airport
Liverpool, England, United Kingdom

Public forecast

Using degrees Celsius for public forecast. Weather courtesy of forecast.io.

METAR (pilot weather report)

Retrieved 2019/04/20 20:20 UTC (0 seconds ago):

EGGP 202020Z 11003KT CAVOK 18/04 Q1027

TAF (pilot weather forecast)

Retrieved 2019/04/20 18:00 UTC (2 hours ago):

TAF EGGP 201657Z 2018/2118 16005KT 9999 FEW045 PROB30 TEMPO 2104/2108 8000